LFBY/XDA METAR and TAF weather

Enter ICAO airport designator
Station Type Date Time Source
LFBY METAR 2019/02/23 01:00 UTC NOAA

LFBY 230100Z AUTO 00000KT 8000 // ////// 05/02 Q1028


Station Type Date Time Source
LFBY Decoded METAR 2019/02/23 01:00 UTC NOAA

Dax, France (LFBY) 43-41N 001-04W 32M
Feb 22, 2019 - 08:00 PM EST / 2019.02.23 0100 UTC
Wind: Calm:0
Visibility: 4 mile(s):0
Temperature: 41 F (5 C)
Dew Point: 35 F (2 C)
Relative Humidity: 80%
Pressure (altimeter): 30.36 in. Hg (1028 hPa)
ob: LFBY 230100Z AUTO 00000KT 8000 // ////// 05/02 Q1028
cycle: 1

Station Type Date Time Source
LFBY TAF UTC NOAA

Error!


Example: see airport list